createdAt,value
2022-12-25T00:01:46.472Z,25.65
2022-12-25T00:04:14.537Z,25.42
2022-12-25T00:06:43.635Z,25.53
2022-12-25T00:09:11.150Z,25.99
2022-12-25T00:11:38.587Z,25.75
2022-12-25T00:14:06.328Z,26.34
2022-12-25T00:16:33.857Z,25.70
2022-12-25T00:19:01.353Z,26.17
2022-12-25T00:21:29.797Z,25.72
2022-12-25T00:23:59.342Z,25.68
2022-12-25T00:26:27.562Z,26.43
2022-12-25T00:28:56.561Z,25.85
2022-12-25T00:31:25.002Z,25.94
2022-12-25T00:33:53.367Z,25.53
2022-12-25T00:36:22.710Z,25.95
2022-12-25T00:38:50.244Z,25.48
2022-12-25T00:41:21.886Z,25.42
2022-12-25T00:43:49.332Z,25.16
2022-12-25T00:46:16.996Z,25.34
2022-12-25T00:48:44.517Z,25.70
2022-12-25T00:51:12.195Z,25.55
2022-12-25T00:53:39.668Z,25.09
2022-12-25T00:56:08.318Z,25.50
2022-12-25T00:58:37.734Z,25.76
2022-12-25T01:01:05.787Z,25.27
2022-12-25T01:03:33.672Z,25.74
2022-12-25T01:06:02.626Z,25.81
2022-12-25T01:08:32.534Z,25.69
2022-12-25T01:11:02.646Z,25.80
2022-12-25T01:13:31.101Z,25.30
2022-12-25T01:16:00.008Z,25.56
2022-12-25T01:18:27.727Z,25.60
2022-12-25T01:20:55.168Z,26.08
2022-12-25T01:23:22.627Z,25.73
2022-12-25T01:25:50.162Z,25.49
2022-12-25T01:28:17.649Z,25.94
2022-12-25T01:30:48.738Z,25.71
2022-12-25T01:33:17.657Z,25.63
2022-12-25T01:35:45.156Z,24.81
2022-12-25T01:38:12.646Z,25.80
2022-12-25T01:40:40.377Z,25.30
2022-12-25T01:43:22.189Z,25.53
2022-12-25T01:45:49.832Z,25.64
2022-12-25T01:48:22.430Z,25.50
2022-12-25T01:50:55.537Z,25.47
2022-12-25T01:53:24.783Z,25.48
2022-12-25T01:55:57.591Z,25.22
2022-12-25T01:58:25.615Z,25.46
2022-12-25T02:00:53.758Z,25.27
2022-12-25T02:03:23.148Z,25.16
2022-12-25T02:05:51.263Z,25.62
2022-12-25T02:08:20.818Z,25.41
2022-12-25T02:10:48.502Z,25.64
2022-12-25T02:13:18.762Z,24.75
2022-12-25T02:15:55.164Z,24.86
2022-12-25T02:18:33.816Z,24.97
2022-12-25T02:21:16.525Z,25.04
2022-12-25T02:24:22.597Z,25.05
2022-12-25T02:27:07.351Z,25.48
2022-12-25T02:29:47.969Z,24.73
2022-12-25T02:32:22.708Z,25.58
2022-12-25T02:34:58.026Z,25.24
2022-12-25T02:37:31.243Z,25.20
2022-12-25T02:40:04.887Z,25.36
2022-12-25T02:42:41.763Z,25.05
2022-12-25T02:45:11.113Z,25.43
2022-12-25T02:47:39.742Z,24.98
2022-12-25T02:50:09.091Z,25.41
2022-12-25T02:52:36.592Z,23.57
2022-12-25T02:55:09.039Z,24.44
2022-12-25T02:57:42.370Z,25.15
2022-12-25T03:00:13.219Z,25.26
2022-12-25T03:02:42.853Z,23.83
2022-12-25T03:05:14.860Z,25.24
2022-12-25T03:07:43.401Z,24.98
2022-12-25T03:10:13.337Z,24.85
2022-12-25T03:12:45.652Z,24.82
2022-12-25T03:15:15.033Z,24.34
2022-12-25T03:17:43.214Z,24.97
2022-12-25T03:20:11.517Z,24.99
2022-12-25T03:22:43.131Z,25.57
2022-12-25T03:25:11.062Z,25.02
2022-12-25T03:27:42.143Z,25.70
2022-12-25T03:30:10.806Z,25.13
2022-12-25T03:32:43.462Z,25.08
2022-12-25T03:35:20.053Z,24.82
2022-12-25T03:38:04.213Z,25.29
2022-12-25T03:40:39.047Z,24.80
2022-12-25T03:43:13.411Z,24.84
2022-12-25T03:45:46.635Z,25.12
2022-12-25T03:48:17.373Z,25.06
2022-12-25T03:50:52.307Z,24.99
2022-12-25T03:53:26.640Z,24.50
2022-12-25T03:55:55.632Z,25.81
2022-12-25T03:58:25.466Z,24.88
2022-12-25T04:00:53.215Z,25.25
2022-12-25T04:03:22.431Z,25.23
2022-12-25T04:05:50.216Z,24.96
2022-12-25T04:08:17.831Z,24.95
2022-12-25T04:10:45.298Z,25.00
2022-12-25T04:13:13.076Z,25.10
2022-12-25T04:15:41.133Z,25.27
2022-12-25T04:18:09.195Z,24.96
2022-12-25T04:20:39.264Z,25.34
2022-12-25T04:23:06.485Z,24.90
2022-12-25T04:25:34.171Z,25.03
2022-12-25T04:28:02.901Z,24.91
2022-12-25T04:30:30.897Z,24.34
2022-12-25T04:32:59.833Z,25.28
2022-12-25T04:35:27.898Z,24.92
2022-12-25T04:37:57.202Z,25.01
2022-12-25T04:40:24.899Z,25.03
2022-12-25T04:42:52.762Z,24.82
2022-12-25T04:45:20.591Z,24.89
2022-12-25T04:47:48.290Z,25.24
2022-12-25T04:50:16.767Z,25.03
2022-12-25T04:52:44.621Z,25.67
2022-12-25T04:55:13.734Z,25.21
2022-12-25T04:57:42.319Z,25.48
2022-12-25T05:00:10.898Z,25.39
2022-12-25T05:02:38.774Z,24.73
2022-12-25T05:05:07.810Z,24.44
2022-12-25T05:07:36.171Z,25.35
2022-12-25T05:10:03.753Z,25.18
2022-12-25T05:12:33.329Z,24.59
2022-12-25T05:15:01.095Z,24.66
2022-12-25T05:17:28.894Z,25.12
2022-12-25T05:19:56.968Z,25.03
2022-12-25T05:22:24.916Z,25.21
2022-12-25T05:24:52.725Z,24.94
2022-12-25T05:27:20.413Z,25.23
2022-12-25T05:29:49.441Z,25.19
2022-12-25T05:32:17.101Z,24.46
2022-12-25T05:34:44.627Z,25.03
2022-12-25T05:37:13.458Z,25.22
2022-12-25T05:39:41.308Z,24.73
2022-12-25T05:42:08.819Z,24.85
2022-12-25T05:44:36.548Z,25.43
2022-12-25T05:47:05.796Z,25.47
2022-12-25T05:49:33.595Z,25.41
2022-12-25T05:52:01.243Z,25.42
2022-12-25T05:54:28.777Z,25.03
2022-12-25T05:56:56.902Z,24.68
2022-12-25T05:59:24.332Z,25.02
2022-12-25T06:01:51.977Z,25.28
2022-12-25T06:04:21.247Z,24.63
2022-12-25T06:06:48.856Z,23.40
2022-12-25T06:09:16.466Z,24.37
2022-12-25T06:11:44.029Z,24.60
2022-12-25T06:14:12.347Z,23.59
2022-12-25T06:16:40.277Z,24.21
2022-12-25T06:19:07.923Z,24.37
2022-12-25T06:21:37.835Z,24.51
2022-12-25T06:24:06.119Z,24.56
2022-12-25T06:26:33.701Z,24.05
2022-12-25T06:29:01.294Z,24.54
2022-12-25T06:31:29.975Z,24.50
2022-12-25T06:33:58.049Z,24.70
2022-12-25T06:36:27.078Z,24.32
2022-12-25T06:38:56.842Z,25.00
2022-12-25T06:41:26.452Z,24.81
2022-12-25T06:43:55.364Z,24.88
2022-12-25T06:46:25.025Z,24.82
2022-12-25T06:48:53.976Z,24.35
2022-12-25T06:51:24.028Z,24.89
2022-12-25T06:53:52.623Z,25.11
2022-12-25T06:56:27.380Z,24.41
2022-12-25T06:58:56.994Z,24.86
2022-12-25T07:01:28.863Z,24.71
2022-12-25T07:04:02.167Z,23.52
2022-12-25T07:06:30.292Z,24.79
2022-12-25T07:08:57.816Z,25.35
2022-12-25T07:11:26.898Z,24.54
2022-12-25T07:13:54.921Z,25.11
2022-12-25T07:16:23.332Z,24.37
2022-12-25T07:18:51.056Z,24.21
2022-12-25T07:21:21.367Z,24.25
2022-12-25T07:23:50.627Z,23.81
2022-12-25T07:26:18.495Z,23.99
2022-12-25T07:28:47.783Z,23.75
2022-12-25T07:31:18.102Z,23.02
2022-12-25T07:33:45.907Z,22.91
2022-12-25T07:36:14.850Z,24.78
2022-12-25T07:38:43.047Z,24.79
2022-12-25T07:41:12.167Z,24.98
2022-12-25T07:43:39.728Z,25.08
2022-12-25T07:46:09.410Z,24.44
2022-12-25T07:48:37.728Z,24.92
2022-12-25T07:51:07.963Z,25.07
2022-12-25T07:53:36.322Z,24.66
2022-12-25T07:56:06.113Z,24.37
2022-12-25T07:58:34.347Z,25.52
2022-12-25T08:01:04.452Z,25.12
2022-12-25T08:03:34.326Z,25.33
2022-12-25T08:06:03.257Z,24.87
2022-12-25T08:08:30.791Z,24.49
2022-12-25T08:10:58.921Z,23.96
2022-12-25T08:13:26.479Z,24.07
2022-12-25T08:15:57.572Z,24.96
2022-12-25T08:18:29.937Z,24.74
2022-12-25T08:21:02.894Z,25.07
2022-12-25T08:23:30.321Z,24.43
2022-12-25T08:26:04.615Z,25.07
2022-12-25T08:28:34.704Z,24.47
2022-12-25T08:31:07.467Z,24.82
2022-12-25T08:33:35.639Z,24.66
2022-12-25T08:36:06.660Z,24.34
2022-12-25T08:38:34.107Z,24.35
2022-12-25T08:41:02.138Z,24.21
2022-12-25T08:43:29.814Z,24.30
2022-12-25T08:45:57.341Z,24.80
2022-12-25T08:48:25.185Z,24.82
2022-12-25T08:50:53.857Z,24.95
2022-12-25T08:53:23.432Z,24.71
2022-12-25T08:55:57.724Z,24.75
2022-12-25T08:58:25.716Z,24.86
2022-12-25T09:00:53.996Z,22.84
2022-12-25T09:03:22.870Z,24.84
2022-12-25T09:05:50.722Z,24.96
2022-12-25T09:08:18.533Z,24.88
2022-12-25T09:10:47.733Z,24.64
2022-12-25T09:13:15.226Z,24.71
2022-12-25T09:15:42.729Z,24.64
2022-12-25T09:18:10.327Z,24.93
2022-12-25T09:20:37.817Z,24.30
2022-12-25T09:23:11.615Z,24.70
2022-12-25T09:25:41.151Z,24.79
2022-12-25T09:28:10.317Z,25.13
2022-12-25T09:30:37.918Z,23.71
2022-12-25T09:33:05.494Z,23.80
2022-12-25T09:35:33.092Z,24.55
2022-12-25T09:38:00.634Z,24.17
2022-12-25T09:40:32.193Z,23.85
2022-12-25T09:43:00.886Z,24.83
2022-12-25T09:45:34.180Z,25.13
2022-12-25T09:48:01.746Z,24.49
2022-12-25T09:50:40.699Z,24.20
2022-12-25T09:53:12.916Z,24.54
2022-12-25T09:55:48.624Z,23.10
2022-12-25T09:58:16.718Z,24.93
2022-12-25T10:00:58.888Z,24.12
2022-12-25T10:03:42.485Z,24.99
2022-12-25T10:06:21.004Z,23.75
2022-12-25T10:09:11.976Z,24.36
2022-12-25T10:12:01.589Z,22.80
2022-12-25T10:14:37.925Z,24.44
2022-12-25T10:17:26.321Z,23.59
2022-12-25T10:20:04.102Z,24.17
2022-12-25T10:22:36.212Z,24.05
2022-12-25T10:25:05.653Z,23.71
2022-12-25T10:27:37.781Z,24.68
2022-12-25T10:30:13.876Z,24.26
2022-12-25T10:32:43.409Z,24.17
2022-12-25T10:35:12.555Z,24.23
2022-12-25T10:37:41.438Z,24.05
2022-12-25T10:40:28.524Z,24.44
2022-12-25T10:43:02.069Z,22.49
2022-12-25T10:45:29.488Z,25.10
2022-12-25T10:48:07.620Z,24.43
2022-12-25T10:50:43.371Z,24.14
2022-12-25T10:53:19.620Z,24.48
2022-12-25T10:56:00.978Z,24.29
2022-12-25T10:58:30.313Z,23.60
2022-12-25T11:01:01.181Z,23.42
2022-12-25T11:03:32.680Z,23.94
2022-12-25T11:06:00.854Z,24.14
2022-12-25T11:08:30.224Z,24.63
2022-12-25T11:10:59.808Z,23.37
2022-12-25T11:13:28.320Z,23.76
2022-12-25T11:16:07.234Z,23.32
2022-12-25T11:18:45.522Z,23.65
2022-12-25T11:21:17.899Z,23.43
2022-12-25T11:23:46.820Z,22.58
2022-12-25T11:26:15.092Z,24.45
2022-12-25T11:28:44.343Z,19.05
2022-12-25T11:31:14.949Z,17.33
2022-12-25T11:33:50.939Z,18.14
2022-12-25T11:36:25.772Z,16.68
2022-12-25T11:38:53.251Z,17.79
2022-12-25T11:41:25.603Z,16.17
2022-12-25T11:43:56.579Z,16.08
2022-12-25T11:46:29.229Z,16.48
2022-12-25T11:49:01.528Z,14.78
2022-12-25T11:51:33.819Z,14.63
2022-12-25T11:54:08.555Z,15.94
2022-12-25T11:56:37.941Z,14.88
2022-12-25T11:59:18.065Z,14.93
2022-12-25T12:01:52.296Z,14.37
2022-12-25T12:04:30.002Z,14.50
2022-12-25T12:07:05.071Z,15.17
2022-12-25T12:09:43.609Z,14.29
2022-12-25T12:12:18.580Z,15.22
2022-12-25T12:14:52.683Z,15.18
2022-12-25T12:17:20.687Z,17.33
2022-12-25T12:19:49.679Z,19.59
2022-12-25T12:22:21.972Z,21.23
2022-12-25T12:24:56.149Z,21.13
2022-12-25T12:27:27.859Z,21.20
2022-12-25T12:29:58.646Z,21.10
2022-12-25T12:32:34.079Z,20.83
2022-12-25T12:35:09.422Z,21.06
2022-12-25T12:37:39.754Z,20.93
2022-12-25T12:40:22.112Z,21.64
2022-12-25T12:42:50.223Z,21.62
2022-12-25T12:45:20.920Z,22.28
2022-12-25T12:47:50.333Z,22.08
2022-12-25T12:50:35.626Z,21.88
2022-12-25T12:53:26.984Z,22.16
2022-12-25T12:55:54.724Z,22.11
2022-12-25T12:58:30.419Z,21.88
2022-12-25T13:01:08.599Z,21.80
2022-12-25T13:04:15.444Z,21.67
2022-12-25T13:06:49.390Z,20.19
2022-12-25T13:09:28.171Z,22.32
2022-12-25T13:11:55.886Z,22.55
2022-12-25T13:14:24.581Z,22.45
2022-12-25T13:16:54.423Z,22.30
2022-12-25T13:19:23.730Z,22.81
2022-12-25T13:21:57.257Z,22.59
2022-12-25T13:24:27.647Z,22.40
2022-12-25T13:26:55.489Z,21.89
2022-12-25T13:29:28.956Z,22.36
2022-12-25T13:31:57.438Z,22.79
2022-12-25T13:34:30.776Z,23.18
2022-12-25T13:37:06.139Z,21.67
2022-12-25T13:39:34.428Z,22.46
2022-12-25T13:42:02.202Z,21.99
2022-12-25T13:44:35.391Z,22.63
2022-12-25T13:47:15.740Z,22.53
2022-12-25T13:49:43.296Z,20.17
2022-12-25T13:52:14.252Z,19.55
2022-12-25T13:54:55.850Z,23.14
2022-12-25T13:57:27.142Z,20.49
2022-12-25T13:59:55.567Z,22.08
2022-12-25T14:02:28.295Z,23.22
2022-12-25T14:04:58.679Z,22.70
2022-12-25T14:07:28.248Z,23.14
2022-12-25T14:09:59.654Z,22.60
2022-12-25T14:12:30.125Z,23.44
2022-12-25T14:14:59.344Z,22.81
2022-12-25T14:17:27.522Z,22.76
2022-12-25T14:20:07.570Z,22.98
2022-12-25T14:22:37.433Z,22.54
2022-12-25T14:25:15.215Z,22.92
2022-12-25T14:27:49.132Z,22.38
2022-12-25T14:30:17.289Z,21.96
2022-12-25T14:32:47.586Z,22.00
2022-12-25T14:35:21.462Z,23.40
2022-12-25T14:37:59.286Z,18.56
2022-12-25T14:40:28.435Z,22.01
2022-12-25T14:42:57.730Z,22.78
2022-12-25T14:45:31.450Z,23.09
2022-12-25T14:48:01.040Z,22.15
2022-12-25T14:50:32.605Z,22.73
2022-12-25T14:53:01.912Z,22.25
2022-12-25T14:55:30.780Z,22.53
2022-12-25T14:58:01.161Z,23.05
2022-12-25T15:00:31.577Z,22.18
2022-12-25T15:03:00.869Z,23.06
2022-12-25T15:05:32.141Z,22.45
2022-12-25T15:08:22.159Z,23.37
2022-12-25T15:11:00.371Z,22.43
2022-12-25T15:13:29.419Z,23.04
2022-12-25T15:16:02.044Z,22.19
2022-12-25T15:18:34.381Z,21.69
2022-12-25T15:21:01.971Z,22.73
2022-12-25T15:23:30.883Z,22.04
2022-12-25T15:25:58.460Z,21.27
2022-12-25T15:28:25.990Z,22.92
2022-12-25T15:30:53.465Z,22.98
2022-12-25T15:33:20.993Z,22.78
2022-12-25T15:35:48.434Z,22.76
2022-12-25T15:38:17.299Z,23.38
2022-12-25T15:40:47.480Z,22.51
2022-12-25T15:43:39.523Z,22.12
2022-12-25T15:46:02.733Z,22.65
2022-12-25T15:48:30.227Z,23.28
2022-12-25T15:50:57.654Z,23.29
2022-12-25T15:53:25.141Z,22.87
2022-12-25T15:55:54.088Z,22.50
2022-12-25T15:58:21.580Z,22.90
2022-12-25T16:00:50.430Z,22.18
2022-12-25T16:03:17.998Z,23.14
2022-12-25T16:05:45.519Z,22.58
2022-12-25T16:08:13.045Z,23.42
2022-12-25T16:10:40.615Z,22.85
2022-12-25T16:13:09.519Z,23.02
2022-12-25T16:15:37.025Z,22.77
2022-12-25T16:18:05.152Z,22.11
2022-12-25T16:20:32.844Z,22.94
2022-12-25T16:23:00.378Z,20.75
2022-12-25T16:25:27.994Z,21.26
2022-12-25T16:27:55.516Z,23.09
2022-12-25T16:30:24.452Z,22.47
2022-12-25T16:32:51.911Z,21.65
2022-12-25T16:35:19.643Z,21.98
2022-12-25T16:37:47.115Z,22.99
2022-12-25T16:40:14.785Z,23.37
2022-12-25T16:42:42.241Z,23.09
2022-12-25T16:45:10.516Z,23.10
2022-12-25T16:47:39.441Z,21.60
2022-12-25T16:50:08.359Z,23.19
2022-12-25T16:52:36.506Z,22.28
2022-12-25T16:55:04.367Z,23.35
2022-12-25T16:57:32.159Z,23.13
2022-12-25T16:59:59.639Z,20.36
2022-12-25T17:02:27.290Z,23.08
2022-12-25T17:04:56.348Z,23.08
2022-12-25T17:07:24.066Z,22.06
2022-12-25T17:09:51.764Z,22.42
2022-12-25T17:12:19.234Z,23.16
2022-12-25T17:14:46.761Z,23.09
2022-12-25T17:17:14.291Z,23.12
2022-12-25T17:19:42.273Z,23.16
2022-12-25T17:22:11.263Z,23.49
2022-12-25T17:24:38.942Z,23.03
2022-12-25T17:27:06.741Z,23.55
2022-12-25T17:29:34.381Z,23.27
2022-12-25T17:32:02.641Z,23.07
2022-12-25T17:37:16.929Z,23.42
2022-12-25T17:42:29.571Z,23.22
2022-12-25T17:44:57.176Z,23.56
2022-12-25T17:47:24.684Z,23.28
2022-12-25T17:49:52.256Z,22.96
2022-12-25T17:52:21.322Z,23.07
2022-12-25T17:54:48.927Z,22.62
2022-12-25T17:57:16.769Z,22.91
2022-12-25T17:59:44.283Z,23.36
2022-12-25T18:02:11.964Z,22.83
2022-12-25T18:04:40.199Z,23.81
2022-12-25T18:07:07.742Z,22.81
2022-12-25T18:09:36.733Z,22.84
2022-12-25T18:12:04.789Z,22.10
2022-12-25T18:14:32.211Z,23.46
2022-12-25T18:16:59.627Z,23.28
2022-12-25T18:19:27.066Z,22.51
2022-12-25T18:21:54.581Z,22.85
2022-12-25T18:24:22.128Z,22.49
2022-12-25T18:26:51.143Z,23.33
2022-12-25T18:29:20.055Z,23.04
2022-12-25T18:31:47.593Z,23.06
2022-12-25T18:34:15.626Z,23.49
2022-12-25T18:36:43.174Z,23.15
2022-12-25T18:39:12.559Z,23.61
2022-12-25T18:41:40.022Z,23.22
2022-12-25T18:44:08.951Z,23.16
2022-12-25T18:46:36.408Z,22.88
2022-12-25T18:49:04.856Z,23.00
2022-12-25T18:51:36.845Z,23.18
2022-12-25T18:54:04.930Z,22.71
2022-12-25T18:56:32.472Z,22.96
2022-12-25T18:58:59.943Z,22.56
2022-12-25T19:01:29.075Z,22.58
2022-12-25T19:04:04.101Z,22.93
2022-12-25T19:06:33.257Z,22.71
2022-12-25T19:09:00.886Z,23.28
2022-12-25T19:11:28.368Z,23.29
2022-12-25T19:13:56.733Z,22.61
2022-12-25T19:16:24.770Z,22.99
2022-12-25T19:19:11.803Z,22.40
2022-12-25T19:21:39.367Z,22.91
2022-12-25T19:24:07.147Z,23.29
2022-12-25T19:26:34.705Z,23.59
2022-12-25T19:29:02.367Z,22.98
2022-12-25T19:31:29.875Z,23.23
2022-12-25T19:33:57.352Z,23.24
2022-12-25T19:36:26.267Z,22.65
2022-12-25T19:38:54.078Z,23.15
2022-12-25T19:41:21.748Z,23.45
2022-12-25T19:46:36.720Z,23.52
2022-12-25T19:49:04.466Z,23.38
2022-12-25T19:51:35.865Z,23.46
2022-12-25T19:54:04.109Z,23.38
2022-12-25T19:56:32.396Z,22.67
2022-12-25T19:59:00.734Z,23.21
2022-12-25T20:01:29.869Z,22.90
2022-12-25T20:03:57.829Z,22.76
2022-12-25T20:06:27.640Z,22.92
2022-12-25T20:08:57.398Z,23.31
2022-12-25T20:11:25.200Z,22.60
2022-12-25T20:13:53.289Z,23.05
2022-12-25T20:16:21.143Z,23.07
2022-12-25T20:18:48.723Z,23.18
2022-12-25T20:21:18.119Z,22.87
2022-12-25T20:23:47.986Z,22.68
2022-12-25T20:26:18.063Z,23.15
2022-12-25T20:28:45.895Z,22.81
2022-12-25T20:31:15.371Z,23.11
2022-12-25T20:33:43.041Z,23.28
2022-12-25T20:36:11.280Z,22.62
2022-12-25T20:38:39.280Z,23.15
2022-12-25T20:43:57.662Z,23.17
2022-12-25T20:46:25.650Z,22.82
2022-12-25T20:48:54.919Z,22.85
2022-12-25T20:51:24.878Z,22.55
2022-12-25T20:53:52.805Z,23.06
2022-12-25T20:56:21.937Z,22.43
2022-12-25T20:58:53.916Z,23.17
2022-12-25T21:01:23.543Z,23.00
2022-12-25T21:03:51.745Z,23.17
2022-12-25T21:06:19.414Z,22.48
2022-12-25T21:08:48.257Z,23.46
2022-12-25T21:11:15.741Z,23.11
2022-12-25T21:13:44.435Z,22.55
2022-12-25T21:16:14.275Z,22.92
2022-12-25T21:18:42.921Z,23.11
2022-12-25T21:21:10.898Z,23.45
2022-12-25T21:23:39.729Z,21.64
2022-12-25T21:26:11.898Z,22.82
2022-12-25T21:28:39.440Z,23.61
2022-12-25T21:31:08.102Z,23.40
2022-12-25T21:33:36.143Z,22.83
2022-12-25T21:36:09.677Z,21.51
2022-12-25T21:38:38.358Z,22.88
2022-12-25T21:41:07.848Z,21.85
2022-12-25T21:43:36.398Z,23.00
2022-12-25T21:46:04.482Z,22.91
2022-12-25T21:48:32.255Z,22.08
2022-12-25T21:51:02.521Z,22.40
2022-12-25T21:53:31.552Z,22.58
2022-12-25T21:56:00.734Z,23.56
2022-12-25T21:58:28.309Z,23.09
2022-12-25T22:00:56.814Z,22.50
2022-12-25T22:03:24.548Z,22.16
2022-12-25T22:05:56.096Z,23.50
2022-12-25T22:08:23.903Z,22.65
2022-12-25T22:10:52.892Z,23.39
2022-12-25T22:13:20.526Z,22.72
2022-12-25T22:15:48.309Z,19.81
2022-12-25T22:18:15.831Z,22.86
2022-12-25T22:20:43.414Z,22.78
2022-12-25T22:23:10.984Z,22.75
2022-12-25T22:25:38.605Z,22.45
2022-12-25T22:28:07.658Z,23.21
2022-12-25T22:30:35.681Z,22.75
2022-12-25T22:33:03.435Z,23.43
2022-12-25T22:35:31.133Z,22.05
2022-12-25T22:37:58.642Z,21.89
2022-12-25T22:40:26.265Z,22.35
2022-12-25T22:42:54.711Z,22.87
2022-12-25T22:45:23.839Z,21.87
2022-12-25T22:47:51.444Z,21.84
2022-12-25T22:50:19.144Z,21.59
2022-12-25T22:52:46.647Z,23.30
2022-12-25T22:55:17.591Z,22.47
2022-12-25T22:57:45.091Z,23.06
2022-12-25T23:00:14.159Z,23.42
2022-12-25T23:02:43.374Z,21.95
2022-12-25T23:05:11.524Z,23.10
2022-12-25T23:07:39.051Z,22.67
2022-12-25T23:10:07.632Z,23.16
2022-12-25T23:12:35.108Z,22.81
2022-12-25T23:15:02.663Z,23.17
2022-12-25T23:17:30.214Z,23.07
2022-12-25T23:20:01.117Z,22.99
2022-12-25T23:22:28.614Z,21.72
2022-12-25T23:24:57.971Z,22.41
2022-12-25T23:27:25.498Z,21.97
2022-12-25T23:29:53.014Z,22.42
2022-12-25T23:32:22.737Z,23.32
2022-12-25T23:34:49.836Z,22.87
2022-12-25T23:37:19.457Z,22.47
2022-12-25T23:39:47.542Z,21.84
2022-12-25T23:42:15.019Z,23.39
2022-12-25T23:44:42.480Z,23.92
2022-12-25T23:47:10.080Z,23.14
2022-12-25T23:49:37.839Z,21.76
2022-12-25T23:52:05.701Z,23.32
2022-12-25T23:54:34.871Z,23.08
2022-12-25T23:57:02.470Z,22.21
2022-12-25T23:59:30.929Z,23.94
